sensor_id;sensor_type;location;lat;lon;timestamp;P1;durP1;ratioP1;P2;durP2;ratioP2
63555;SDS011;49700;48.072;7.800;2024-02-26T00:01:09;3.70;;;1.47;;
63555;SDS011;49700;48.072;7.800;2024-02-26T00:03:34;2.10;;;1.00;;
63555;SDS011;49700;48.072;7.800;2024-02-26T00:06:01;1.25;;;1.00;;
63555;SDS011;49700;48.072;7.800;2024-02-26T00:08:27;0.80;;;0.70;;
63555;SDS011;49700;48.072;7.800;2024-02-26T00:10:53;1.13;;;0.80;;
63555;SDS011;49700;48.072;7.800;2024-02-26T00:13:18;1.03;;;0.60;;
63555;SDS011;49700;48.072;7.800;2024-02-26T00:15:45;1.10;;;0.70;;
63555;SDS011;49700;48.072;7.800;2024-02-26T00:18:11;1.33;;;0.60;;
63555;SDS011;49700;48.072;7.800;2024-02-26T00:20:36;0.70;;;0.57;;
63555;SDS011;49700;48.072;7.800;2024-02-26T00:23:01;1.23;;;0.80;;
63555;SDS011;49700;48.072;7.800;2024-02-26T00:25:27;0.73;;;0.73;;
63555;SDS011;49700;48.072;7.800;2024-02-26T00:27:55;1.02;;;0.80;;
63555;SDS011;49700;48.072;7.800;2024-02-26T00:30:20;0.63;;;0.57;;
63555;SDS011;49700;48.072;7.800;2024-02-26T00:32:45;0.70;;;0.70;;
63555;SDS011;49700;48.072;7.800;2024-02-26T00:35:11;0.80;;;0.70;;
63555;SDS011;49700;48.072;7.800;2024-02-26T00:37:36;0.70;;;0.70;;
63555;SDS011;49700;48.072;7.800;2024-02-26T00:40:02;0.80;;;0.63;;
63555;SDS011;49700;48.072;7.800;2024-02-26T00:42:27;1.10;;;0.77;;
63555;SDS011;49700;48.072;7.800;2024-02-26T00:44:53;0.80;;;0.70;;
63555;SDS011;49700;48.072;7.800;2024-02-26T00:47:18;2.87;;;1.00;;
63555;SDS011;49700;48.072;7.800;2024-02-26T00:49:43;1.00;;;0.90;;
63555;SDS011;49700;48.072;7.800;2024-02-26T00:52:09;0.70;;;0.70;;
63555;SDS011;49700;48.072;7.800;2024-02-26T00:54:34;1.27;;;0.80;;
63555;SDS011;49700;48.072;7.800;2024-02-26T00:57:00;1.63;;;0.90;;
63555;SDS011;49700;48.072;7.800;2024-02-26T00:59:25;1.30;;;1.10;;
63555;SDS011;49700;48.072;7.800;2024-02-26T01:01:50;1.57;;;0.90;;
63555;SDS011;49700;48.072;7.800;2024-02-26T01:04:16;1.43;;;1.00;;
63555;SDS011;49700;48.072;7.800;2024-02-26T01:06:41;1.60;;;0.90;;
63555;SDS011;49700;48.072;7.800;2024-02-26T01:09:07;1.47;;;1.03;;
63555;SDS011;49700;48.072;7.800;2024-02-26T01:11:33;2.80;;;1.20;;
63555;SDS011;49700;48.072;7.800;2024-02-26T01:13:58;3.63;;;2.10;;
63555;SDS011;49700;48.072;7.800;2024-02-26T01:16:24;1.67;;;1.30;;
63555;SDS011;49700;48.072;7.800;2024-02-26T01:18:49;2.13;;;1.70;;
63555;SDS011;49700;48.072;7.800;2024-02-26T01:21:15;1.67;;;1.57;;
63555;SDS011;49700;48.072;7.800;2024-02-26T01:23:40;2.40;;;1.70;;
63555;SDS011;49700;48.072;7.800;2024-02-26T01:26:05;2.47;;;1.60;;
63555;SDS011;49700;48.072;7.800;2024-02-26T01:28:31;1.70;;;1.60;;
63555;SDS011;49700;48.072;7.800;2024-02-26T01:30:56;1.40;;;1.30;;
63555;SDS011;49700;48.072;7.800;2024-02-26T01:33:23;1.50;;;1.40;;
63555;SDS011;49700;48.072;7.800;2024-02-26T01:35:50;2.95;;;1.50;;
63555;SDS011;49700;48.072;7.800;2024-02-26T01:38:15;2.13;;;1.67;;
63555;SDS011;49700;48.072;7.800;2024-02-26T01:40:42;1.55;;;1.45;;
63555;SDS011;49700;48.072;7.800;2024-02-26T01:43:07;2.07;;;1.50;;
63555;SDS011;49700;48.072;7.800;2024-02-26T01:45:32;2.37;;;1.90;;
63555;SDS011;49700;48.072;7.800;2024-02-26T01:47:58;1.53;;;1.43;;
63555;SDS011;49700;48.072;7.800;2024-02-26T01:50:23;1.73;;;1.40;;
63555;SDS011;49700;48.072;7.800;2024-02-26T01:52:49;3.40;;;1.57;;
63555;SDS011;49700;48.072;7.800;2024-02-26T01:55:17;1.90;;;1.40;;
63555;SDS011;49700;48.072;7.800;2024-02-26T01:57:43;2.28;;;1.92;;
63555;SDS011;49700;48.072;7.800;2024-02-26T02:00:10;3.75;;;1.77;;
63555;SDS011;49700;48.072;7.800;2024-02-26T02:02:36;2.10;;;1.60;;
63555;SDS011;49700;48.072;7.800;2024-02-26T02:05:03;2.40;;;2.20;;
63555;SDS011;49700;48.072;7.800;2024-02-26T02:07:30;3.35;;;2.05;;
63555;SDS011;49700;48.072;7.800;2024-02-26T02:09:56;1.83;;;1.67;;
63555;SDS011;49700;48.072;7.800;2024-02-26T02:12:21;1.77;;;1.30;;
63555;SDS011;49700;48.072;7.800;2024-02-26T02:14:47;2.30;;;1.60;;
63555;SDS011;49700;48.072;7.800;2024-02-26T02:17:12;1.90;;;1.33;;
63555;SDS011;49700;48.072;7.800;2024-02-26T02:19:38;2.57;;;2.10;;
63555;SDS011;49700;48.072;7.800;2024-02-26T02:22:04;1.63;;;1.53;;
63555;SDS011;49700;48.072;7.800;2024-02-26T02:24:29;4.50;;;2.00;;
63555;SDS011;49700;48.072;7.800;2024-02-26T02:26:54;2.50;;;1.57;;
63555;SDS011;49700;48.072;7.800;2024-02-26T02:29:20;3.05;;;2.30;;
63555;SDS011;49700;48.072;7.800;2024-02-26T02:31:46;4.40;;;1.87;;
63555;SDS011;49700;48.072;7.800;2024-02-26T02:34:11;1.80;;;1.67;;
63555;SDS011;49700;48.072;7.800;2024-02-26T02:36:53;4.20;;;3.70;;
63555;SDS011;49700;48.072;7.800;2024-02-26T02:39:19;2.17;;;1.92;;
63555;SDS011;49700;48.072;7.800;2024-02-26T02:41:45;2.03;;;1.58;;
63555;SDS011;49700;48.072;7.800;2024-02-26T02:44:11;3.23;;;2.20;;
63555;SDS011;49700;48.072;7.800;2024-02-26T02:46:37;2.90;;;1.80;;
63555;SDS011;49700;48.072;7.800;2024-02-26T02:49:02;2.50;;;1.60;;
63555;SDS011;49700;48.072;7.800;2024-02-26T02:51:27;3.40;;;2.77;;
63555;SDS011;49700;48.072;7.800;2024-02-26T02:53:53;3.73;;;1.73;;
63555;SDS011;49700;48.072;7.800;2024-02-26T02:56:18;3.47;;;2.10;;
63555;SDS011;49700;48.072;7.800;2024-02-26T02:58:44;1.30;;;1.20;;
63555;SDS011;49700;48.072;7.800;2024-02-26T03:01:10;2.20;;;1.80;;
63555;SDS011;49700;48.072;7.800;2024-02-26T03:03:35;1.63;;;1.37;;
63555;SDS011;49700;48.072;7.800;2024-02-26T03:06:02;1.95;;;1.63;;
63555;SDS011;49700;48.072;7.800;2024-02-26T03:08:28;3.80;;;1.77;;
63555;SDS011;49700;48.072;7.800;2024-02-26T03:10:54;2.95;;;1.60;;
63555;SDS011;49700;48.072;7.800;2024-02-26T03:13:19;1.50;;;1.40;;
63555;SDS011;49700;48.072;7.800;2024-02-26T03:15:45;2.37;;;1.90;;
63555;SDS011;49700;48.072;7.800;2024-02-26T03:18:10;1.47;;;1.37;;
63555;SDS011;49700;48.072;7.800;2024-02-26T03:20:35;2.60;;;1.20;;
63555;SDS011;49700;48.072;7.800;2024-02-26T03:23:02;2.33;;;2.03;;
63555;SDS011;49700;48.072;7.800;2024-02-26T03:25:27;2.80;;;1.57;;
63555;SDS011;49700;48.072;7.800;2024-02-26T03:27:53;3.43;;;1.60;;
63555;SDS011;49700;48.072;7.800;2024-02-26T03:30:18;3.60;;;2.87;;
63555;SDS011;49700;48.072;7.800;2024-02-26T03:32:44;2.23;;;1.23;;
63555;SDS011;49700;48.072;7.800;2024-02-26T03:35:09;1.70;;;1.40;;
63555;SDS011;49700;48.072;7.800;2024-02-26T03:37:34;1.90;;;1.30;;
63555;SDS011;49700;48.072;7.800;2024-02-26T03:40:00;1.30;;;1.00;;
63555;SDS011;49700;48.072;7.800;2024-02-26T03:42:26;1.25;;;1.10;;
63555;SDS011;49700;48.072;7.800;2024-02-26T03:44:52;1.30;;;0.90;;
63555;SDS011;49700;48.072;7.800;2024-02-26T03:47:17;1.10;;;1.00;;
63555;SDS011;49700;48.072;7.800;2024-02-26T03:49:42;2.20;;;1.00;;
63555;SDS011;49700;48.072;7.800;2024-02-26T03:52:08;1.87;;;0.87;;
63555;SDS011;49700;48.072;7.800;2024-02-26T03:54:33;2.03;;;0.77;;
63555;SDS011;49700;48.072;7.800;2024-02-26T03:56:59;1.53;;;1.03;;
63555;SDS011;49700;48.072;7.800;2024-02-26T03:59:24;1.17;;;0.80;;
63555;SDS011;49700;48.072;7.800;2024-02-26T04:01:50;1.70;;;0.90;;
63555;SDS011;49700;48.072;7.800;2024-02-26T04:04:16;1.25;;;0.80;;
63555;SDS011;49700;48.072;7.800;2024-02-26T04:06:45;3.80;;;1.67;;
63555;SDS011;49700;48.072;7.800;2024-02-26T04:09:11;1.30;;;1.00;;
63555;SDS011;49700;48.072;7.800;2024-02-26T04:11:38;1.15;;;0.80;;
63555;SDS011;49700;48.072;7.800;2024-02-26T04:14:04;1.37;;;1.00;;
63555;SDS011;49700;48.072;7.800;2024-02-26T04:16:31;1.25;;;0.98;;
63555;SDS011;49700;48.072;7.800;2024-02-26T04:18:56;1.33;;;0.83;;
63555;SDS011;49700;48.072;7.800;2024-02-26T04:21:21;1.83;;;0.80;;
63555;SDS011;49700;48.072;7.800;2024-02-26T04:23:47;1.10;;;0.90;;
63555;SDS011;49700;48.072;7.800;2024-02-26T04:26:14;0.93;;;0.80;;
63555;SDS011;49700;48.072;7.800;2024-02-26T04:28:39;1.03;;;0.93;;
63555;SDS011;49700;48.072;7.800;2024-02-26T04:31:05;1.47;;;1.00;;
63555;SDS011;49700;48.072;7.800;2024-02-26T04:33:30;0.90;;;0.90;;
63555;SDS011;49700;48.072;7.800;2024-02-26T04:35:59;2.38;;;1.58;;
63555;SDS011;49700;48.072;7.800;2024-02-26T04:38:24;1.80;;;1.03;;
63555;SDS011;49700;48.072;7.800;2024-02-26T04:40:49;1.63;;;1.30;;
63555;SDS011;49700;48.072;7.800;2024-02-26T04:43:15;2.13;;;1.40;;
63555;SDS011;49700;48.072;7.800;2024-02-26T04:45:42;1.35;;;1.05;;
63555;SDS011;49700;48.072;7.800;2024-02-26T04:48:08;1.13;;;1.03;;
63555;SDS011;49700;48.072;7.800;2024-02-26T04:50:33;2.97;;;1.77;;
63555;SDS011;49700;48.072;7.800;2024-02-26T04:52:59;4.20;;;3.67;;
63555;SDS011;49700;48.072;7.800;2024-02-26T04:55:24;5.10;;;3.27;;
63555;SDS011;49700;48.072;7.800;2024-02-26T04:57:50;3.80;;;2.60;;
63555;SDS011;49700;48.072;7.800;2024-02-26T05:00:15;1.87;;;1.70;;
63555;SDS011;49700;48.072;7.800;2024-02-26T05:02:41;1.93;;;1.40;;
63555;SDS011;49700;48.072;7.800;2024-02-26T05:05:06;1.60;;;1.40;;
63555;SDS011;49700;48.072;7.800;2024-02-26T05:07:33;2.70;;;1.70;;
63555;SDS011;49700;48.072;7.800;2024-02-26T05:09:59;1.40;;;1.30;;
63555;SDS011;49700;48.072;7.800;2024-02-26T05:12:25;1.50;;;1.27;;
63555;SDS011;49700;48.072;7.800;2024-02-26T05:14:50;1.77;;;1.33;;
63555;SDS011;49700;48.072;7.800;2024-02-26T05:17:16;3.27;;;1.43;;
63555;SDS011;49700;48.072;7.800;2024-02-26T05:19:41;6.93;;;1.40;;
63555;SDS011;49700;48.072;7.800;2024-02-26T05:22:09;1.80;;;1.30;;
63555;SDS011;49700;48.072;7.800;2024-02-26T05:24:37;2.10;;;1.52;;
63555;SDS011;49700;48.072;7.800;2024-02-26T05:27:03;2.10;;;1.63;;
63555;SDS011;49700;48.072;7.800;2024-02-26T05:29:28;3.20;;;1.67;;
63555;SDS011;49700;48.072;7.800;2024-02-26T05:31:54;2.53;;;2.07;;
63555;SDS011;49700;48.072;7.800;2024-02-26T05:34:19;1.77;;;1.60;;
63555;SDS011;49700;48.072;7.800;2024-02-26T05:36:44;2.53;;;1.50;;
63555;SDS011;49700;48.072;7.800;2024-02-26T05:39:10;1.53;;;1.40;;
63555;SDS011;49700;48.072;7.800;2024-02-26T05:41:36;1.60;;;1.50;;
63555;SDS011;49700;48.072;7.800;2024-02-26T05:44:02;1.30;;;1.20;;
63555;SDS011;49700;48.072;7.800;2024-02-26T05:46:28;5.03;;;1.55;;
63555;SDS011;49700;48.072;7.800;2024-02-26T05:48:54;1.80;;;1.60;;
63555;SDS011;49700;48.072;7.800;2024-02-26T05:51:19;1.33;;;1.23;;
63555;SDS011;49700;48.072;7.800;2024-02-26T05:53:45;1.27;;;1.17;;
63555;SDS011;49700;48.072;7.800;2024-02-26T05:56:12;2.33;;;0.98;;
63555;SDS011;49700;48.072;7.800;2024-02-26T05:58:37;1.47;;;0.90;;
63555;SDS011;49700;48.072;7.800;2024-02-26T06:01:03;1.97;;;1.07;;
63555;SDS011;49700;48.072;7.800;2024-02-26T06:03:29;5.53;;;5.00;;
63555;SDS011;49700;48.072;7.800;2024-02-26T06:05:54;4.65;;;4.13;;
63555;SDS011;49700;48.072;7.800;2024-02-26T06:08:20;10.00;;;4.38;;
63555;SDS011;49700;48.072;7.800;2024-02-26T06:10:45;5.10;;;3.10;;
63555;SDS011;49700;48.072;7.800;2024-02-26T06:13:10;5.50;;;3.23;;
63555;SDS011;49700;48.072;7.800;2024-02-26T06:15:36;3.47;;;3.17;;
63555;SDS011;49700;48.072;7.800;2024-02-26T06:18:02;3.63;;;2.33;;
63555;SDS011;49700;48.072;7.800;2024-02-26T06:20:27;2.30;;;1.93;;
63555;SDS011;49700;48.072;7.800;2024-02-26T06:22:53;1.73;;;1.63;;
63555;SDS011;49700;48.072;7.800;2024-02-26T06:25:18;2.63;;;1.50;;
63555;SDS011;49700;48.072;7.800;2024-02-26T06:27:43;2.20;;;1.60;;
63555;SDS011;49700;48.072;7.800;2024-02-26T06:30:09;2.90;;;2.67;;
63555;SDS011;49700;48.072;7.800;2024-02-26T06:32:36;2.67;;;2.20;;
63555;SDS011;49700;48.072;7.800;2024-02-26T06:35:02;3.25;;;2.20;;
63555;SDS011;49700;48.072;7.800;2024-02-26T06:37:32;4.93;;;2.15;;
63555;SDS011;49700;48.072;7.800;2024-02-26T06:39:58;3.60;;;3.22;;
63555;SDS011;49700;48.072;7.800;2024-02-26T06:42:24;4.45;;;3.33;;
63555;SDS011;49700;48.072;7.800;2024-02-26T06:44:50;3.43;;;2.70;;
63555;SDS011;49700;48.072;7.800;2024-02-26T06:47:15;3.23;;;2.90;;
63555;SDS011;49700;48.072;7.800;2024-02-26T06:49:40;3.87;;;2.20;;
63555;SDS011;49700;48.072;7.800;2024-02-26T06:52:06;4.00;;;3.13;;
63555;SDS011;49700;48.072;7.800;2024-02-26T06:54:31;5.90;;;3.40;;
63555;SDS011;49700;48.072;7.800;2024-02-26T06:56:57;7.93;;;4.23;;
63555;SDS011;49700;48.072;7.800;2024-02-26T06:59:23;6.50;;;5.13;;
63555;SDS011;49700;48.072;7.800;2024-02-26T07:01:49;9.60;;;5.43;;
63555;SDS011;49700;48.072;7.800;2024-02-26T07:04:14;6.50;;;5.30;;
63555;SDS011;49700;48.072;7.800;2024-02-26T07:06:40;6.20;;;4.60;;
63555;SDS011;49700;48.072;7.800;2024-02-26T07:09:06;7.38;;;4.72;;
63555;SDS011;49700;48.072;7.800;2024-02-26T07:11:32;8.43;;;3.73;;
63555;SDS011;49700;48.072;7.800;2024-02-26T07:13:57;5.03;;;4.57;;
63555;SDS011;49700;48.072;7.800;2024-02-26T07:16:22;5.63;;;4.43;;
63555;SDS011;49700;48.072;7.800;2024-02-26T07:18:48;4.63;;;4.13;;
63555;SDS011;49700;48.072;7.800;2024-02-26T07:21:13;6.53;;;5.17;;
63555;SDS011;49700;48.072;7.800;2024-02-26T07:23:39;5.53;;;4.40;;
63555;SDS011;49700;48.072;7.800;2024-02-26T07:26:04;4.87;;;3.93;;
63555;SDS011;49700;48.072;7.800;2024-02-26T07:28:29;3.53;;;2.57;;
63555;SDS011;49700;48.072;7.800;2024-02-26T07:30:55;2.37;;;1.97;;
63555;SDS011;49700;48.072;7.800;2024-02-26T07:33:21;2.40;;;1.73;;
63555;SDS011;49700;48.072;7.800;2024-02-26T07:35:46;2.20;;;2.00;;
63555;SDS011;49700;48.072;7.800;2024-02-26T07:38:11;3.83;;;2.57;;
63555;SDS011;49700;48.072;7.800;2024-02-26T07:40:38;5.45;;;2.80;;
63555;SDS011;49700;48.072;7.800;2024-02-26T07:43:04;4.00;;;3.60;;
63555;SDS011;49700;48.072;7.800;2024-02-26T07:45:29;3.17;;;2.67;;
63555;SDS011;49700;48.072;7.800;2024-02-26T07:47:55;5.47;;;3.43;;
63555;SDS011;49700;48.072;7.800;2024-02-26T07:50:20;3.73;;;3.20;;
63555;SDS011;49700;48.072;7.800;2024-02-26T07:52:45;3.40;;;3.00;;
63555;SDS011;49700;48.072;7.800;2024-02-26T07:55:11;3.63;;;2.30;;
63555;SDS011;49700;48.072;7.800;2024-02-26T07:57:36;4.50;;;2.23;;
63555;SDS011;49700;48.072;7.800;2024-02-26T08:00:02;6.70;;;2.30;;
63555;SDS011;49700;48.072;7.800;2024-02-26T08:02:29;2.00;;;1.90;;
63555;SDS011;49700;48.072;7.800;2024-02-26T08:04:55;2.63;;;1.43;;
63555;SDS011;49700;48.072;7.800;2024-02-26T08:07:20;3.20;;;1.70;;
63555;SDS011;49700;48.072;7.800;2024-02-26T08:09:46;2.80;;;1.47;;
63555;SDS011;49700;48.072;7.800;2024-02-26T08:12:12;2.07;;;1.53;;
63555;SDS011;49700;48.072;7.800;2024-02-26T08:14:37;3.23;;;1.90;;
63555;SDS011;49700;48.072;7.800;2024-02-26T08:17:03;2.27;;;2.07;;
63555;SDS011;49700;48.072;7.800;2024-02-26T08:19:29;6.13;;;4.10;;
63555;SDS011;49700;48.072;7.800;2024-02-26T08:21:54;5.97;;;3.40;;
63555;SDS011;49700;48.072;7.800;2024-02-26T08:24:19;5.43;;;2.80;;
63555;SDS011;49700;48.072;7.800;2024-02-26T08:26:45;3.33;;;1.70;;
63555;SDS011;49700;48.072;7.800;2024-02-26T08:29:11;1.50;;;1.30;;
63555;SDS011;49700;48.072;7.800;2024-02-26T08:31:36;1.67;;;1.57;;
63555;SDS011;49700;48.072;7.800;2024-02-26T08:34:04;1.83;;;1.38;;
63555;SDS011;49700;48.072;7.800;2024-02-26T08:36:33;3.20;;;2.38;;
63555;SDS011;49700;48.072;7.800;2024-02-26T08:38:59;1.83;;;1.17;;
63555;SDS011;49700;48.072;7.800;2024-02-26T08:41:24;3.47;;;1.40;;
63555;SDS011;49700;48.072;7.800;2024-02-26T08:43:50;1.83;;;1.50;;
63555;SDS011;49700;48.072;7.800;2024-02-26T08:46:15;3.00;;;1.73;;
63555;SDS011;49700;48.072;7.800;2024-02-26T08:48:40;1.80;;;1.70;;
63555;SDS011;49700;48.072;7.800;2024-02-26T08:51:06;4.53;;;3.73;;
63555;SDS011;49700;48.072;7.800;2024-02-26T08:53:32;4.20;;;2.75;;
63555;SDS011;49700;48.072;7.800;2024-02-26T08:55:58;3.40;;;2.27;;
63555;SDS011;49700;48.072;7.800;2024-02-26T08:58:23;4.80;;;3.93;;
63555;SDS011;49700;48.072;7.800;2024-02-26T09:00:49;7.10;;;5.80;;
63555;SDS011;49700;48.072;7.800;2024-02-26T09:03:14;2.63;;;2.43;;
63555;SDS011;49700;48.072;7.800;2024-02-26T09:05:39;6.70;;;5.67;;
63555;SDS011;49700;48.072;7.800;2024-02-26T09:08:05;4.20;;;2.83;;
63555;SDS011;49700;48.072;7.800;2024-02-26T09:10:31;3.90;;;3.17;;
63555;SDS011;49700;48.072;7.800;2024-02-26T09:12:58;5.30;;;3.05;;
63555;SDS011;49700;48.072;7.800;2024-02-26T09:15:23;3.73;;;3.03;;
63555;SDS011;49700;48.072;7.800;2024-02-26T09:17:49;5.87;;;3.97;;
63555;SDS011;49700;48.072;7.800;2024-02-26T09:20:15;2.80;;;2.55;;
63555;SDS011;49700;48.072;7.800;2024-02-26T09:22:45;3.05;;;2.70;;
63555;SDS011;49700;48.072;7.800;2024-02-26T09:25:11;3.75;;;2.63;;
63555;SDS011;49700;48.072;7.800;2024-02-26T09:27:36;3.00;;;2.70;;
63555;SDS011;49700;48.072;7.800;2024-02-26T09:30:02;4.40;;;3.40;;
63555;SDS011;49700;48.072;7.800;2024-02-26T09:32:27;2.60;;;2.40;;
63555;SDS011;49700;48.072;7.800;2024-02-26T09:34:53;2.73;;;2.50;;
63555;SDS011;49700;48.072;7.800;2024-02-26T09:37:18;2.30;;;2.10;;
63555;SDS011;49700;48.072;7.800;2024-02-26T09:39:44;4.20;;;3.17;;
63555;SDS011;49700;48.072;7.800;2024-02-26T09:42:09;3.03;;;2.73;;
63555;SDS011;49700;48.072;7.800;2024-02-26T09:44:39;2.60;;;2.40;;
63555;SDS011;49700;48.072;7.800;2024-02-26T09:47:07;3.00;;;2.55;;
63555;SDS011;49700;48.072;7.800;2024-02-26T09:49:34;5.60;;;2.90;;
63555;SDS011;49700;48.072;7.800;2024-02-26T09:52:01;3.05;;;2.80;;
63555;SDS011;49700;48.072;7.800;2024-02-26T09:54:28;3.83;;;3.53;;
63555;SDS011;49700;48.072;7.800;2024-02-26T09:56:58;5.45;;;3.50;;
63555;SDS011;49700;48.072;7.800;2024-02-26T09:59:25;2.85;;;2.33;;
63555;SDS011;49700;48.072;7.800;2024-02-26T10:01:52;3.33;;;2.40;;
63555;SDS011;49700;48.072;7.800;2024-02-26T10:04:18;4.55;;;2.47;;
63555;SDS011;49700;48.072;7.800;2024-02-26T10:06:45;3.05;;;2.00;;
63555;SDS011;49700;48.072;7.800;2024-02-26T10:09:11;2.83;;;2.53;;
63555;SDS011;49700;48.072;7.800;2024-02-26T10:11:37;3.43;;;2.23;;
63555;SDS011;49700;48.072;7.800;2024-02-26T10:14:03;2.95;;;2.40;;
63555;SDS011;49700;48.072;7.800;2024-02-26T10:16:29;3.40;;;2.90;;
63555;SDS011;49700;48.072;7.800;2024-02-26T10:18:54;2.63;;;2.43;;
63555;SDS011;49700;48.072;7.800;2024-02-26T10:21:20;3.50;;;2.63;;
63555;SDS011;49700;48.072;7.800;2024-02-26T10:23:47;2.90;;;2.60;;
63555;SDS011;49700;48.072;7.800;2024-02-26T10:26:13;2.20;;;2.00;;
63555;SDS011;49700;48.072;7.800;2024-02-26T10:28:39;3.10;;;2.80;;
63555;SDS011;49700;48.072;7.800;2024-02-26T10:31:06;4.00;;;2.28;;
63555;SDS011;49700;48.072;7.800;2024-02-26T10:33:35;4.23;;;2.23;;
63555;SDS011;49700;48.072;7.800;2024-02-26T10:36:02;2.00;;;1.75;;
63555;SDS011;49700;48.072;7.800;2024-02-26T10:38:32;2.60;;;1.98;;
63555;SDS011;49700;48.072;7.800;2024-02-26T10:40:58;1.83;;;1.63;;
63555;SDS011;49700;48.072;7.800;2024-02-26T10:43:25;1.93;;;1.80;;
63555;SDS011;49700;48.072;7.800;2024-02-26T10:45:50;3.30;;;2.03;;
63555;SDS011;49700;48.072;7.800;2024-02-26T10:48:16;1.83;;;1.73;;
63555;SDS011;49700;48.072;7.800;2024-02-26T10:50:42;2.42;;;1.70;;
63555;SDS011;49700;48.072;7.800;2024-02-26T10:53:13;2.60;;;1.93;;
63555;SDS011;49700;48.072;7.800;2024-02-26T10:55:41;2.30;;;2.05;;
63555;SDS011;49700;48.072;7.800;2024-02-26T10:58:11;3.28;;;1.50;;
63555;SDS011;49700;48.072;7.800;2024-02-26T11:00:38;2.28;;;1.70;;
63555;SDS011;49700;48.072;7.800;2024-02-26T11:03:05;2.08;;;1.50;;
63555;SDS011;49700;48.072;7.800;2024-02-26T11:05:33;2.95;;;2.15;;
63555;SDS011;49700;48.072;7.800;2024-02-26T11:07:59;2.40;;;2.20;;
63555;SDS011;49700;48.072;7.800;2024-02-26T11:10:26;2.63;;;2.25;;
63555;SDS011;49700;48.072;7.800;2024-02-26T11:12:55;1.90;;;1.42;;
63555;SDS011;49700;48.072;7.800;2024-02-26T11:15:22;2.42;;;1.58;;
63555;SDS011;49700;48.072;7.800;2024-02-26T11:17:48;3.65;;;2.28;;
63555;SDS011;49700;48.072;7.800;2024-02-26T11:20:14;2.47;;;1.60;;
63555;SDS011;49700;48.072;7.800;2024-02-26T11:22:39;1.47;;;1.37;;
63555;SDS011;49700;48.072;7.800;2024-02-26T11:25:05;2.13;;;1.23;;
63555;SDS011;49700;48.072;7.800;2024-02-26T11:27:35;1.80;;;1.48;;
63555;SDS011;49700;48.072;7.800;2024-02-26T11:30:04;1.45;;;1.17;;
63555;SDS011;49700;48.072;7.800;2024-02-26T11:32:34;2.20;;;2.00;;
63555;SDS011;49700;48.072;7.800;2024-02-26T11:35:00;2.20;;;1.77;;
63555;SDS011;49700;48.072;7.800;2024-02-26T11:37:26;1.43;;;1.33;;
63555;SDS011;49700;48.072;7.800;2024-02-26T11:39:51;2.93;;;1.57;;
63555;SDS011;49700;48.072;7.800;2024-02-26T11:42:17;2.63;;;1.88;;
63555;SDS011;49700;48.072;7.800;2024-02-26T11:44:49;1.75;;;1.50;;
63555;SDS011;49700;48.072;7.800;2024-02-26T11:47:19;2.97;;;2.22;;
63555;SDS011;49700;48.072;7.800;2024-02-26T11:49:45;3.10;;;2.50;;
63555;SDS011;49700;48.072;7.800;2024-02-26T11:52:11;3.33;;;2.00;;
63555;SDS011;49700;48.072;7.800;2024-02-26T11:59:48;3.60;;;2.15;;
63555;SDS011;49700;48.072;7.800;2024-02-26T12:05:10;2.13;;;1.92;;
63555;SDS011;49700;48.072;7.800;2024-02-26T12:07:49;1.50;;;1.40;;
63555;SDS011;49700;48.072;7.800;2024-02-26T12:13:10;2.38;;;1.38;;
63555;SDS011;49700;48.072;7.800;2024-02-26T12:15:41;3.50;;;1.80;;
63555;SDS011;49700;48.072;7.800;2024-02-26T12:18:08;3.10;;;2.15;;
63555;SDS011;49700;48.072;7.800;2024-02-26T12:20:36;1.42;;;1.33;;
63555;SDS011;49700;48.072;7.800;2024-02-26T12:23:09;1.50;;;1.30;;
63555;SDS011;49700;48.072;7.800;2024-02-26T12:25:40;2.10;;;1.65;;
63555;SDS011;49700;48.072;7.800;2024-02-26T12:28:05;2.37;;;2.03;;
63555;SDS011;49700;48.072;7.800;2024-02-26T12:30:32;2.72;;;1.80;;
63555;SDS011;49700;48.072;7.800;2024-02-26T12:32:59;1.65;;;1.38;;
63555;SDS011;49700;48.072;7.800;2024-02-26T12:35:26;1.38;;;1.27;;
63555;SDS011;49700;48.072;7.800;2024-02-26T12:37:55;2.13;;;1.92;;
63555;SDS011;49700;48.072;7.800;2024-02-26T12:40:20;1.80;;;1.70;;
63555;SDS011;49700;48.072;7.800;2024-02-26T12:42:46;2.03;;;1.83;;
63555;SDS011;49700;48.072;7.800;2024-02-26T12:45:13;3.40;;;1.75;;
63555;SDS011;49700;48.072;7.800;2024-02-26T12:47:41;1.85;;;1.55;;
63555;SDS011;49700;48.072;7.800;2024-02-26T12:50:08;1.30;;;1.20;;
63555;SDS011;49700;48.072;7.800;2024-02-26T12:52:34;1.88;;;1.60;;
63555;SDS011;49700;48.072;7.800;2024-02-26T12:55:01;2.63;;;1.20;;
63555;SDS011;49700;48.072;7.800;2024-02-26T12:57:29;2.20;;;1.60;;
63555;SDS011;49700;48.072;7.800;2024-02-26T12:59:56;1.85;;;1.20;;
63555;SDS011;49700;48.072;7.800;2024-02-26T13:02:23;1.35;;;1.00;;
63555;SDS011;49700;48.072;7.800;2024-02-26T13:04:49;1.10;;;1.00;;
63555;SDS011;49700;48.072;7.800;2024-02-26T13:07:14;1.70;;;1.20;;
63555;SDS011;49700;48.072;7.800;2024-02-26T13:09:40;1.80;;;1.50;;
63555;SDS011;49700;48.072;7.800;2024-02-26T13:12:06;3.37;;;1.60;;
63555;SDS011;49700;48.072;7.800;2024-02-26T13:14:32;1.38;;;1.20;;
63555;SDS011;49700;48.072;7.800;2024-02-26T13:16:59;1.35;;;1.00;;
63555;SDS011;49700;48.072;7.800;2024-02-26T13:19:25;1.45;;;1.25;;
63555;SDS011;49700;48.072;7.800;2024-02-26T13:21:51;2.40;;;2.13;;
63555;SDS011;49700;48.072;7.800;2024-02-26T13:24:16;2.03;;;1.83;;
63555;SDS011;49700;48.072;7.800;2024-02-26T13:26:44;4.30;;;1.25;;
63555;SDS011;49700;48.072;7.800;2024-02-26T13:29:16;1.60;;;1.50;;
63555;SDS011;49700;48.072;7.800;2024-02-26T13:31:42;2.58;;;1.58;;
63555;SDS011;49700;48.072;7.800;2024-02-26T13:34:07;1.47;;;1.37;;
63555;SDS011;49700;48.072;7.800;2024-02-26T13:36:33;3.43;;;1.80;;
63555;SDS011;49700;48.072;7.800;2024-02-26T13:38:58;2.00;;;1.80;;
63555;SDS011;49700;48.072;7.800;2024-02-26T13:41:25;2.25;;;1.60;;
63555;SDS011;49700;48.072;7.800;2024-02-26T13:43:51;1.63;;;1.17;;
63555;SDS011;49700;48.072;7.800;2024-02-26T13:46:16;2.23;;;1.50;;
63555;SDS011;49700;48.072;7.800;2024-02-26T13:48:42;1.00;;;0.90;;
63555;SDS011;49700;48.072;7.800;2024-02-26T13:51:08;1.45;;;1.35;;
63555;SDS011;49700;48.072;7.800;2024-02-26T13:53:34;2.53;;;1.50;;
63555;SDS011;49700;48.072;7.800;2024-02-26T13:55:59;1.53;;;1.30;;
63555;SDS011;49700;48.072;7.800;2024-02-26T13:58:26;1.60;;;1.20;;
63555;SDS011;49700;48.072;7.800;2024-02-26T14:00:52;1.83;;;1.30;;
63555;SDS011;49700;48.072;7.800;2024-02-26T14:03:21;1.50;;;1.40;;
63555;SDS011;49700;48.072;7.800;2024-02-26T14:05:46;7.03;;;1.93;;
63555;SDS011;49700;48.072;7.800;2024-02-26T14:08:12;1.90;;;1.40;;
63555;SDS011;49700;48.072;7.800;2024-02-26T14:10:40;2.30;;;2.13;;
63555;SDS011;49700;48.072;7.800;2024-02-26T14:13:06;1.58;;;1.10;;
63555;SDS011;49700;48.072;7.800;2024-02-26T14:15:32;1.53;;;1.37;;
63555;SDS011;49700;48.072;7.800;2024-02-26T14:17:58;1.33;;;1.23;;
63555;SDS011;49700;48.072;7.800;2024-02-26T14:20:24;2.33;;;1.23;;
63555;SDS011;49700;48.072;7.800;2024-02-26T14:22:50;1.85;;;1.67;;
63555;SDS011;49700;48.072;7.800;2024-02-26T14:25:18;1.45;;;1.35;;
63555;SDS011;49700;48.072;7.800;2024-02-26T14:27:45;1.90;;;1.70;;
63555;SDS011;49700;48.072;7.800;2024-02-26T14:30:11;5.18;;;1.85;;
63555;SDS011;49700;48.072;7.800;2024-02-26T14:32:37;2.75;;;2.05;;
63555;SDS011;49700;48.072;7.800;2024-02-26T14:35:04;1.67;;;1.33;;
63555;SDS011;49700;48.072;7.800;2024-02-26T14:37:31;3.47;;;1.65;;
63555;SDS011;49700;48.072;7.800;2024-02-26T14:39:57;1.40;;;1.30;;
63555;SDS011;49700;48.072;7.800;2024-02-26T14:42:22;3.07;;;2.10;;
63555;SDS011;49700;48.072;7.800;2024-02-26T14:44:49;1.50;;;1.40;;
63555;SDS011;49700;48.072;7.800;2024-02-26T14:47:16;2.22;;;1.52;;
63555;SDS011;49700;48.072;7.800;2024-02-26T14:49:41;1.50;;;1.40;;
63555;SDS011;49700;48.072;7.800;2024-02-26T14:52:07;1.85;;;1.33;;